ESNQ

Kiruna Airport

Sweden
METAR ESNQ 210650Z AUTO 24013KT 9999 BKN041/// 13/04 Q1013
Observed Flight Rules
May-21 @ 06:50 UTC (16 minutes ago) Visual Flight Rules
Wind Visibility Clouds
240° at 13 knots 10,000+ meters
  • Broken at 4,100' AGL
Temperatures Readings
Current 13°C / 55°F
Dewpoint 4°C / 39°F
Humidity 55%
Altimeter 29.91" Hg
Pressure 1013 hPa
Elevation 452
METAR ESNQ 210650Z AUTO 24013KT 9999 BKN041/// 13/04 Q1013
Observed Flight Rules
May-21 @ 06:50 UTC
(16 minutes ago)
VFR
Wind Visibility
240° at 13 knots 10,000+ meters
Clouds
  • Broken at 4,100' AGL
Temperature Dewpoint
13°C / 55°F 4°C / 39°F
Humidity Altimeter Pressure
55% 29.91" Hg 1013 hPa